createdAt,value
2023-05-20T00:00:57.254Z,53.04
2023-05-20T00:03:25.531Z,52.80
2023-05-20T00:05:53.067Z,53.06
2023-05-20T00:08:20.987Z,52.04
2023-05-20T00:10:48.812Z,51.20
2023-05-20T00:13:16.281Z,51.12
2023-05-20T00:15:43.889Z,51.33
2023-05-20T00:18:11.483Z,51.30
2023-05-20T00:20:40.096Z,49.37
2023-05-20T00:23:07.371Z,49.94
2023-05-20T00:25:35.185Z,49.33
2023-05-20T00:28:03.012Z,49.34
2023-05-20T00:30:30.295Z,48.89
2023-05-20T00:32:57.566Z,49.00
2023-05-20T00:35:24.871Z,49.85
2023-05-20T00:37:52.187Z,49.67
2023-05-20T00:40:20.979Z,49.10
2023-05-20T00:42:48.203Z,48.99
2023-05-20T00:45:15.703Z,49.13
2023-05-20T00:47:43.842Z,47.83
2023-05-20T00:50:11.761Z,49.14
2023-05-20T00:52:44.006Z,48.60
2023-05-20T00:55:12.620Z,48.87
2023-05-20T00:57:40.394Z,49.32
2023-05-20T01:00:10.763Z,48.85
2023-05-20T01:02:38.963Z,49.20
2023-05-20T01:05:07.921Z,49.02
2023-05-20T01:07:35.805Z,49.20
2023-05-20T01:10:04.184Z,48.72
2023-05-20T01:12:46.643Z,48.67
2023-05-20T01:15:16.676Z,48.74
2023-05-20T01:17:52.982Z,49.49
2023-05-20T01:20:22.224Z,49.13
2023-05-20T01:22:57.618Z,48.91
2023-05-20T01:25:26.486Z,48.87
2023-05-20T01:28:00.681Z,50.08
2023-05-20T01:30:37.621Z,49.24
2023-05-20T01:33:13.472Z,48.57
2023-05-20T01:35:42.672Z,49.25
2023-05-20T01:38:10.188Z,49.68
2023-05-20T01:40:38.800Z,49.07
2023-05-20T01:43:07.313Z,48.87
2023-05-20T01:45:37.026Z,49.97
2023-05-20T01:48:05.202Z,50.95
2023-05-20T01:50:32.602Z,51.21
2023-05-20T01:53:01.223Z,50.90
2023-05-20T01:55:28.655Z,50.53
2023-05-20T01:57:56.011Z,49.99
2023-05-20T02:00:23.456Z,49.41
2023-05-20T02:02:50.954Z,50.95
2023-05-20T02:05:18.794Z,51.54
2023-05-20T02:07:46.441Z,51.47
2023-05-20T02:10:14.528Z,51.32
2023-05-20T02:12:43.013Z,50.87
2023-05-20T02:15:11.101Z,50.95
2023-05-20T02:17:39.823Z,50.92
2023-05-20T02:20:08.668Z,52.17
2023-05-20T02:22:36.911Z,51.81
2023-05-20T02:25:05.562Z,52.18
2023-05-20T02:27:32.916Z,52.51
2023-05-20T02:30:01.590Z,53.51
2023-05-20T02:32:29.526Z,51.74
2023-05-20T02:34:57.065Z,53.02
2023-05-20T02:37:24.392Z,51.89
2023-05-20T02:39:51.613Z,51.94
2023-05-20T02:42:19.559Z,52.86
2023-05-20T02:44:46.953Z,51.02
2023-05-20T02:47:14.700Z,52.60
2023-05-20T02:49:42.210Z,53.06
2023-05-20T02:52:10.624Z,52.19
2023-05-20T02:54:38.202Z,53.31
2023-05-20T02:57:05.723Z,53.20
2023-05-20T02:59:33.039Z,52.97
2023-05-20T03:02:00.812Z,52.52
2023-05-20T03:04:28.976Z,53.06
2023-05-20T03:06:57.916Z,53.96
2023-05-20T03:09:25.838Z,51.84
2023-05-20T03:11:53.694Z,54.25
2023-05-20T03:14:21.503Z,53.91
2023-05-20T03:16:49.092Z,54.17
2023-05-20T03:19:17.002Z,53.60
2023-05-20T03:21:44.493Z,52.96
2023-05-20T03:24:12.035Z,53.18
2023-05-20T03:26:43.301Z,55.14
2023-05-20T03:29:10.982Z,55.64
2023-05-20T03:31:38.527Z,55.93
2023-05-20T03:34:05.873Z,54.88
2023-05-20T03:36:33.318Z,52.84
2023-05-20T03:39:01.922Z,54.64
2023-05-20T03:41:31.092Z,54.80
2023-05-20T03:43:58.467Z,54.15
2023-05-20T03:46:27.305Z,53.76
2023-05-20T03:48:54.643Z,54.45
2023-05-20T03:51:22.937Z,53.73
2023-05-20T03:53:51.590Z,55.48
2023-05-20T03:56:19.107Z,56.55
2023-05-20T03:58:46.435Z,56.29
2023-05-20T04:01:14.395Z,55.09
2023-05-20T04:03:42.909Z,55.09
2023-05-20T04:06:10.296Z,55.28
2023-05-20T04:08:37.883Z,53.85
2023-05-20T04:11:06.221Z,52.18
2023-05-20T04:13:34.469Z,52.42
2023-05-20T04:16:03.031Z,53.05
2023-05-20T04:18:31.867Z,53.95
2023-05-20T04:21:24.885Z,53.40
2023-05-20T04:23:52.236Z,52.98
2023-05-20T04:26:20.708Z,53.29
2023-05-20T04:28:51.049Z,52.56
2023-05-20T04:31:18.706Z,52.41
2023-05-20T04:33:46.596Z,51.88
2023-05-20T04:36:16.202Z,50.56
2023-05-20T04:38:44.748Z,50.70
2023-05-20T04:41:12.136Z,49.26
2023-05-20T04:43:40.469Z,48.16
2023-05-20T04:46:08.847Z,47.93
2023-05-20T04:48:36.596Z,46.48
2023-05-20T04:51:04.709Z,46.21
2023-05-20T04:53:33.943Z,46.87
2023-05-20T04:56:01.919Z,46.24
2023-05-20T04:58:31.692Z,46.21
2023-05-20T05:00:59.972Z,45.60
2023-05-20T05:03:27.663Z,44.98
2023-05-20T05:05:59.271Z,44.75
2023-05-20T05:08:27.070Z,44.45
2023-05-20T05:10:55.260Z,44.71
2023-05-20T05:13:22.852Z,43.97
2023-05-20T05:16:03.250Z,43.17
2023-05-20T05:18:32.475Z,42.87
2023-05-20T05:21:05.247Z,43.22
2023-05-20T05:23:34.650Z,43.16
2023-05-20T05:26:02.056Z,42.63
2023-05-20T05:28:29.320Z,42.94
2023-05-20T05:30:57.252Z,41.70
2023-05-20T05:33:24.740Z,41.04
2023-05-20T05:35:52.700Z,41.32
2023-05-20T05:38:20.240Z,40.82
2023-05-20T05:40:47.662Z,39.60
2023-05-20T05:43:16.219Z,38.21
2023-05-20T05:45:46.433Z,37.31
2023-05-20T05:48:13.859Z,35.17
2023-05-20T05:50:46.442Z,33.49
2023-05-20T05:53:15.466Z,34.43
2023-05-20T05:55:47.457Z,36.60
2023-05-20T05:58:15.524Z,39.00
2023-05-20T06:00:42.779Z,39.83
2023-05-20T06:03:14.978Z,38.63
2023-05-20T06:05:47.302Z,37.74
2023-05-20T06:08:14.707Z,35.54
2023-05-20T06:10:42.195Z,35.38
2023-05-20T06:13:09.373Z,32.84
2023-05-20T06:15:37.005Z,34.96
2023-05-20T06:18:04.526Z,34.39
2023-05-20T06:20:32.876Z,32.95
2023-05-20T06:23:00.291Z,29.90
2023-05-20T06:25:42.068Z,29.39
2023-05-20T06:28:09.322Z,28.79
2023-05-20T06:30:36.631Z,27.10
2023-05-20T06:33:04.204Z,29.45
2023-05-20T06:35:31.418Z,34.21
2023-05-20T06:37:58.776Z,34.95
2023-05-20T06:40:27.376Z,33.32
2023-05-20T06:42:55.170Z,31.06
2023-05-20T06:45:43.626Z,31.84
2023-05-20T06:48:34.400Z,29.21
2023-05-20T06:51:09.582Z,28.59
2023-05-20T06:53:37.464Z,30.93
2023-05-20T06:56:05.248Z,29.26
2023-05-20T06:58:33.402Z,28.30
2023-05-20T07:01:00.642Z,26.04
2023-05-20T07:03:28.451Z,26.01
2023-05-20T07:05:55.964Z,26.28
2023-05-20T07:08:24.327Z,28.60
2023-05-20T07:10:52.340Z,29.34
2023-05-20T07:13:24.060Z,28.86
2023-05-20T07:15:52.596Z,25.98
2023-05-20T07:18:21.535Z,27.13
2023-05-20T07:20:53.541Z,26.93
2023-05-20T07:23:33.804Z,26.79
2023-05-20T07:26:01.431Z,26.12
2023-05-20T07:28:30.828Z,27.38
2023-05-20T07:31:00.197Z,28.88
2023-05-20T07:33:30.965Z,28.18
2023-05-20T07:35:59.385Z,27.02
2023-05-20T07:38:26.981Z,27.74
2023-05-20T07:41:01.040Z,28.03
2023-05-20T07:43:29.096Z,29.22
2023-05-20T07:45:57.333Z,31.14
2023-05-20T07:48:29.037Z,32.89
2023-05-20T07:51:03.972Z,34.50
2023-05-20T07:53:33.640Z,33.49
2023-05-20T07:56:01.201Z,31.75
2023-05-20T07:58:31.786Z,27.79
2023-05-20T08:01:00.398Z,27.11
2023-05-20T08:03:28.740Z,27.45
2023-05-20T08:06:03.802Z,30.71
2023-05-20T08:08:31.342Z,32.87
2023-05-20T08:11:06.302Z,34.43
2023-05-20T08:13:34.131Z,34.95
2023-05-20T08:17:18.039Z,36.11
2023-05-20T08:19:46.241Z,35.57
2023-05-20T08:23:33.355Z,36.60
2023-05-20T08:26:04.201Z,34.24
2023-05-20T08:28:34.390Z,34.04
2023-05-20T08:31:02.650Z,32.39
2023-05-20T08:33:31.355Z,33.31
2023-05-20T08:35:59.209Z,34.78
2023-05-20T08:38:26.600Z,34.77
2023-05-20T08:40:58.051Z,33.54
2023-05-20T08:44:41.252Z,33.35
2023-05-20T08:48:24.668Z,29.86
2023-05-20T08:50:53.693Z,29.47
2023-05-20T08:54:37.737Z,26.00
2023-05-20T08:57:05.971Z,27.23
2023-05-20T09:00:48.077Z,27.66
2023-05-20T09:04:31.641Z,24.16
2023-05-20T09:08:14.579Z,22.89
2023-05-20T09:10:43.094Z,24.07
2023-05-20T09:14:29.294Z,26.53
2023-05-20T09:16:57.366Z,26.80
2023-05-20T09:19:26.489Z,27.94
2023-05-20T09:21:56.307Z,28.75
2023-05-20T09:24:27.006Z,28.45
2023-05-20T09:26:55.285Z,29.33
2023-05-20T09:29:23.503Z,27.72
2023-05-20T09:31:51.884Z,28.39
2023-05-20T09:34:22.055Z,27.58
2023-05-20T09:36:51.172Z,26.43
2023-05-20T09:39:34.359Z,26.96
2023-05-20T09:42:12.698Z,27.99
2023-05-20T09:44:42.713Z,28.81
2023-05-20T09:47:10.497Z,29.50
2023-05-20T09:49:39.649Z,29.39
2023-05-20T09:52:07.712Z,26.70
2023-05-20T09:54:36.912Z,24.13
2023-05-20T09:57:07.442Z,22.36
2023-05-20T09:59:37.917Z,21.22
2023-05-20T10:02:07.426Z,20.50
2023-05-20T10:04:43.284Z,19.30
2023-05-20T10:07:55.570Z,16.37
2023-05-20T10:11:05.878Z,16.99
2023-05-20T10:13:57.725Z,18.04
2023-05-20T10:17:40.999Z,16.33
2023-05-20T10:21:27.004Z,17.35
2023-05-20T10:23:55.327Z,18.80
2023-05-20T10:27:38.203Z,21.61
2023-05-20T10:31:21.502Z,19.66
2023-05-20T10:35:05.088Z,19.58
2023-05-20T10:38:48.193Z,21.32
2023-05-20T10:41:28.846Z,21.30
2023-05-20T10:44:06.859Z,22.83
2023-05-20T10:47:49.724Z,22.25
2023-05-20T10:51:32.430Z,17.46
2023-05-20T10:55:14.969Z,17.89
2023-05-20T10:58:57.833Z,18.33
2023-05-20T11:02:40.718Z,16.77
2023-05-20T11:06:23.203Z,18.93
2023-05-20T11:08:50.393Z,21.15
2023-05-20T11:11:17.580Z,19.72
2023-05-20T11:13:45.928Z,21.27
2023-05-20T11:16:13.550Z,23.69
2023-05-20T11:18:41.864Z,21.24
2023-05-20T11:21:09.324Z,19.63
2023-05-20T11:23:39.877Z,18.20
2023-05-20T11:26:09.007Z,19.14
2023-05-20T11:28:36.767Z,19.02
2023-05-20T11:31:05.725Z,21.01
2023-05-20T11:33:33.785Z,19.65
2023-05-20T11:36:44.331Z,19.16
2023-05-20T11:39:17.780Z,15.73
2023-05-20T11:41:48.438Z,16.08
2023-05-20T11:44:15.742Z,16.54
2023-05-20T11:46:46.068Z,18.66
2023-05-20T11:49:15.501Z,22.99
2023-05-20T11:51:45.165Z,23.10
2023-05-20T11:54:13.381Z,21.17
2023-05-20T11:56:45.711Z,19.14
2023-05-20T11:59:14.878Z,18.95
2023-05-20T12:01:43.232Z,21.24
2023-05-20T12:04:15.142Z,22.34
2023-05-20T12:06:44.182Z,22.17
2023-05-20T12:09:14.222Z,22.41
2023-05-20T12:11:45.806Z,23.25
2023-05-20T12:14:16.855Z,23.13
2023-05-20T12:17:00.101Z,23.95
2023-05-20T12:19:30.006Z,24.61
2023-05-20T12:21:59.923Z,24.73
2023-05-20T12:24:32.289Z,24.53
2023-05-20T12:27:00.922Z,23.96
2023-05-20T12:29:31.442Z,22.22
2023-05-20T12:31:59.314Z,20.90
2023-05-20T12:34:26.974Z,20.43
2023-05-20T12:36:54.424Z,20.36
2023-05-20T12:39:24.293Z,19.97
2023-05-20T12:41:52.373Z,21.08
2023-05-20T12:44:20.310Z,20.72
2023-05-20T12:46:47.877Z,21.51
2023-05-20T12:49:15.793Z,21.24
2023-05-20T12:51:43.649Z,20.91
2023-05-20T12:54:11.098Z,20.91
2023-05-20T12:56:39.481Z,19.76
2023-05-20T12:59:07.429Z,21.59
2023-05-20T13:01:34.967Z,22.49
2023-05-20T13:04:03.522Z,22.50
2023-05-20T13:06:35.193Z,23.73
2023-05-20T13:09:13.533Z,23.10
2023-05-20T13:11:40.920Z,23.03
2023-05-20T13:14:11.818Z,22.83
2023-05-20T13:16:41.228Z,23.43
2023-05-20T13:19:09.779Z,23.30
2023-05-20T13:21:48.117Z,25.07
2023-05-20T13:24:22.390Z,25.58
2023-05-20T13:26:54.532Z,25.44
2023-05-20T13:29:22.689Z,25.82
2023-05-20T13:31:50.395Z,24.95
2023-05-20T13:34:18.798Z,26.07
2023-05-20T13:36:50.431Z,26.48
2023-05-20T13:39:23.211Z,25.84
2023-05-20T13:41:53.606Z,26.44
2023-05-20T13:44:23.532Z,25.66
2023-05-20T13:47:01.162Z,25.39
2023-05-20T13:49:28.944Z,25.93
2023-05-20T13:52:07.687Z,25.40
2023-05-20T13:54:39.050Z,25.63
2023-05-20T13:57:09.693Z,25.37
2023-05-20T13:59:37.731Z,26.07
2023-05-20T14:02:12.486Z,25.98
2023-05-20T14:04:48.563Z,26.12
2023-05-20T14:07:16.512Z,25.19
2023-05-20T14:09:45.480Z,25.69
2023-05-20T14:12:13.051Z,26.40
2023-05-20T14:14:43.111Z,26.60
2023-05-20T14:17:11.056Z,26.45
2023-05-20T14:19:42.290Z,25.19
2023-05-20T14:22:12.133Z,24.75
2023-05-20T14:24:40.133Z,26.23
2023-05-20T14:27:08.155Z,26.36
2023-05-20T14:29:36.149Z,26.14
2023-05-20T14:32:22.493Z,26.15
2023-05-20T14:34:55.445Z,25.61
2023-05-20T14:37:37.298Z,26.39
2023-05-20T14:40:15.176Z,26.96
2023-05-20T14:42:52.099Z,27.78
2023-05-20T14:45:23.621Z,27.59
2023-05-20T14:47:55.015Z,26.63
2023-05-20T14:50:32.050Z,26.65
2023-05-20T14:52:59.988Z,26.70
2023-05-20T14:55:44.808Z,26.09
2023-05-20T14:58:18.592Z,26.82
2023-05-20T15:00:53.281Z,27.54
2023-05-20T15:03:24.382Z,27.78
2023-05-20T15:06:00.933Z,27.51
2023-05-20T15:08:42.088Z,28.03
2023-05-20T15:11:23.821Z,28.46
2023-05-20T15:14:02.441Z,28.20
2023-05-20T15:16:34.721Z,27.62
2023-05-20T15:19:19.310Z,28.18
2023-05-20T15:21:53.479Z,28.05
2023-05-20T15:24:41.073Z,27.98
2023-05-20T15:27:11.554Z,28.07
2023-05-20T15:29:49.074Z,28.35
2023-05-20T15:32:40.215Z,28.35
2023-05-20T15:35:20.966Z,27.87
2023-05-20T15:37:57.369Z,27.60
2023-05-20T15:40:27.740Z,27.54
2023-05-20T15:42:59.028Z,28.72
2023-05-20T15:45:27.941Z,28.36
2023-05-20T15:48:03.346Z,28.36
2023-05-20T15:50:36.373Z,27.90
2023-05-20T15:53:15.794Z,27.18
2023-05-20T15:55:46.052Z,27.04
2023-05-20T15:58:16.101Z,27.07
2023-05-20T16:00:44.245Z,28.47
2023-05-20T16:03:13.459Z,28.19
2023-05-20T16:05:46.419Z,28.71
2023-05-20T16:08:16.762Z,28.01
2023-05-20T16:10:51.855Z,26.80
2023-05-20T16:13:20.090Z,25.82
2023-05-20T16:16:01.488Z,24.92
2023-05-20T16:18:34.817Z,25.74
2023-05-20T16:21:07.970Z,25.95
2023-05-20T16:23:38.752Z,26.26
2023-05-20T16:26:13.250Z,26.10
2023-05-20T16:28:47.508Z,25.66
2023-05-20T16:31:34.498Z,26.08
2023-05-20T16:34:04.699Z,27.10
2023-05-20T16:36:43.936Z,26.44
2023-05-20T16:39:21.426Z,26.41
2023-05-20T16:41:53.133Z,26.67
2023-05-20T16:44:26.124Z,26.12
2023-05-20T16:46:56.599Z,26.27
2023-05-20T16:49:28.342Z,27.17
2023-05-20T16:51:58.749Z,27.63
2023-05-20T16:54:26.494Z,27.86
2023-05-20T16:57:00.865Z,27.23
2023-05-20T16:59:31.578Z,27.09
2023-05-20T17:01:59.304Z,27.40
2023-05-20T17:04:27.274Z,27.00
2023-05-20T17:07:03.176Z,26.62
2023-05-20T17:09:33.304Z,27.32
2023-05-20T17:12:01.122Z,27.01
2023-05-20T17:14:28.621Z,27.08
2023-05-20T17:16:55.962Z,26.85
2023-05-20T17:19:23.808Z,27.42
2023-05-20T17:21:54.327Z,27.64
2023-05-20T17:24:22.751Z,27.27
2023-05-20T17:26:50.486Z,26.84
2023-05-20T17:29:18.179Z,26.19
2023-05-20T17:31:45.400Z,26.28
2023-05-20T17:34:13.867Z,26.78
2023-05-20T17:36:41.459Z,26.80
2023-05-20T17:39:09.729Z,26.78
2023-05-20T17:41:37.094Z,26.72
2023-05-20T17:44:05.056Z,27.33
2023-05-20T17:46:32.333Z,27.38
2023-05-20T17:48:59.738Z,28.55
2023-05-20T17:51:27.299Z,28.38
2023-05-20T17:53:55.118Z,28.42
2023-05-20T17:56:22.938Z,28.75
2023-05-20T17:58:50.657Z,28.28
2023-05-20T18:01:17.966Z,28.25
2023-05-20T18:03:46.729Z,29.09
2023-05-20T18:06:14.702Z,28.96
2023-05-20T18:08:42.512Z,29.14
2023-05-20T18:11:10.688Z,29.26
2023-05-20T18:13:38.343Z,29.10
2023-05-20T18:16:06.796Z,29.43
2023-05-20T18:18:34.155Z,29.02
2023-05-20T18:21:01.470Z,29.57
2023-05-20T18:23:29.356Z,30.59
2023-05-20T18:25:57.268Z,30.01
2023-05-20T18:28:24.584Z,30.46
2023-05-20T18:30:51.978Z,30.71
2023-05-20T18:33:19.502Z,30.74
2023-05-20T18:35:46.976Z,31.30
2023-05-20T18:38:14.433Z,31.80
2023-05-20T18:40:41.688Z,32.44
2023-05-20T18:43:09.004Z,32.21
2023-05-20T18:45:36.310Z,32.06
2023-05-20T18:48:05.266Z,32.19
2023-05-20T18:50:33.290Z,32.93
2023-05-20T18:53:00.856Z,33.44
2023-05-20T18:55:28.275Z,34.10
2023-05-20T18:57:56.384Z,34.91
2023-05-20T19:00:24.393Z,35.28
2023-05-20T19:02:51.703Z,35.74
2023-05-20T19:05:20.069Z,36.21
2023-05-20T19:07:47.479Z,36.69
2023-05-20T19:10:15.487Z,37.02
2023-05-20T19:12:43.589Z,37.58
2023-05-20T19:15:11.809Z,38.22
2023-05-20T19:17:39.668Z,38.63
2023-05-20T19:20:08.916Z,38.19
2023-05-20T19:22:36.179Z,38.67
2023-05-20T19:25:05.215Z,38.89
2023-05-20T19:27:32.492Z,38.75
2023-05-20T19:29:59.767Z,38.99
2023-05-20T19:32:27.083Z,38.50
2023-05-20T19:34:56.880Z,38.32
2023-05-20T19:37:24.464Z,38.43
2023-05-20T19:39:51.756Z,38.62
2023-05-20T19:42:19.034Z,37.92
2023-05-20T19:44:50.486Z,37.75
2023-05-20T19:47:17.971Z,37.66
2023-05-20T19:49:45.271Z,37.23
2023-05-20T19:52:12.472Z,37.10
2023-05-20T19:54:41.678Z,36.99
2023-05-20T19:57:08.993Z,36.88
2023-05-20T19:59:38.052Z,36.72
2023-05-20T20:02:07.130Z,37.06
2023-05-20T20:04:34.434Z,37.67
2023-05-20T20:07:02.491Z,37.74
2023-05-20T20:09:31.270Z,38.56
2023-05-20T20:11:58.760Z,38.70
2023-05-20T20:14:25.986Z,39.04
2023-05-20T20:16:54.556Z,39.51
2023-05-20T20:19:23.054Z,39.14
2023-05-20T20:21:56.873Z,39.33
2023-05-20T20:24:24.439Z,39.39
2023-05-20T20:26:54.138Z,39.27
2023-05-20T20:29:24.623Z,40.10
2023-05-20T20:31:52.498Z,40.71
2023-05-20T20:34:19.761Z,41.23
2023-05-20T20:36:47.530Z,41.12
2023-05-20T20:39:21.171Z,41.21
2023-05-20T20:41:50.452Z,41.73
2023-05-20T20:44:22.549Z,42.81
2023-05-20T20:46:51.717Z,43.00
2023-05-20T20:49:21.083Z,42.78
2023-05-20T20:51:50.283Z,43.03
2023-05-20T20:54:17.865Z,42.97
2023-05-20T20:56:47.172Z,43.05
2023-05-20T20:59:15.815Z,43.40
2023-05-20T21:01:44.782Z,43.08
2023-05-20T21:04:14.057Z,44.28
2023-05-20T21:06:47.596Z,44.74
2023-05-20T21:09:16.323Z,44.44
2023-05-20T21:11:45.270Z,44.46
2023-05-20T21:14:13.275Z,44.58
2023-05-20T21:16:42.136Z,44.19
2023-05-20T21:19:10.414Z,44.94
2023-05-20T21:22:04.594Z,44.97
2023-05-20T21:24:32.672Z,45.59
2023-05-20T21:27:00.148Z,44.15
2023-05-20T21:29:27.404Z,45.46
2023-05-20T21:31:55.102Z,45.53
2023-05-20T21:34:22.288Z,45.83
2023-05-20T21:36:49.540Z,45.79
2023-05-20T21:39:17.093Z,46.31
2023-05-20T21:41:44.427Z,46.64
2023-05-20T21:44:11.689Z,47.03
2023-05-20T21:46:39.162Z,47.11
2023-05-20T21:49:06.531Z,47.02
2023-05-20T21:51:33.991Z,46.77
2023-05-20T21:54:01.477Z,47.14
2023-05-20T21:56:28.798Z,47.50
2023-05-20T21:58:56.238Z,47.16
2023-05-20T22:01:23.692Z,46.58
2023-05-20T22:03:53.398Z,47.73
2023-05-20T22:06:21.700Z,47.79
2023-05-20T22:08:49.388Z,48.09
2023-05-20T22:11:17.049Z,48.06
2023-05-20T22:13:44.593Z,48.00
2023-05-20T22:16:12.079Z,47.93
2023-05-20T22:18:39.709Z,48.83
2023-05-20T22:21:11.747Z,48.84
2023-05-20T22:23:41.130Z,47.98
2023-05-20T22:26:11.567Z,47.15
2023-05-20T22:28:38.781Z,47.78
2023-05-20T22:31:06.328Z,47.50
2023-05-20T22:33:33.868Z,48.11
2023-05-20T22:36:01.115Z,48.33
2023-05-20T22:38:30.720Z,48.63
2023-05-20T22:40:57.993Z,49.33
2023-05-20T22:43:26.275Z,48.07
2023-05-20T22:45:53.999Z,47.40
2023-05-20T22:48:23.179Z,48.76
2023-05-20T22:50:51.782Z,48.28
2023-05-20T22:53:20.998Z,48.10
2023-05-20T22:55:49.136Z,48.69
2023-05-20T22:58:16.857Z,49.16
2023-05-20T23:00:44.567Z,49.16
2023-05-20T23:03:12.370Z,48.63
2023-05-20T23:05:39.682Z,49.20
2023-05-20T23:08:07.002Z,49.18
2023-05-20T23:10:34.729Z,49.16
2023-05-20T23:13:02.220Z,48.64
2023-05-20T23:15:31.147Z,49.32
2023-05-20T23:19:13.888Z,49.67
2023-05-20T23:21:41.197Z,49.28
2023-05-20T23:25:27.033Z,48.97
2023-05-20T23:27:54.290Z,48.37
2023-05-20T23:30:21.663Z,48.83
2023-05-20T23:34:04.517Z,49.96
2023-05-20T23:36:34.461Z,50.37
2023-05-20T23:40:17.166Z,50.31
2023-05-20T23:42:50.465Z,50.17
2023-05-20T23:46:32.845Z,49.17
2023-05-20T23:50:15.794Z,50.50
2023-05-20T23:52:43.187Z,51.14
2023-05-20T23:55:13.002Z,50.34
2023-05-20T23:58:57.502Z,50.88
